Time;durP1;ratioP1;P1;durP2;ratioP2;P2;SDS_P1;SDS_P2;PMS_P1;PMS_P2;Temp;Humidity;BMP_temperature;BMP_pressure;BME280_temperature;BME280_humidity;BME280_pressure;Samples;Min_cycle;Max_cycle;Signal;HPM_P1;HPM_P2
2024/04/10 00:01:16;;;;;;;6.90;1.25;;;9.80;99.90;;;;;;5489095;26;20022;-93
2024/04/10 00:03:43;;;;;;;2.53;0.65;;;9.90;99.90;;;;;;5497852;26;20033;-93
2024/04/10 00:06:10;;;;;;;2.33;0.63;;;9.80;99.90;;;;;;5500291;26;20034;-94
2024/04/10 00:08:37;;;;;;;4.57;0.85;;;9.80;99.90;;;;;;5496706;26;20008;-93
2024/04/10 00:11:03;;;;;;;4.32;1.20;;;9.80;99.90;;;;;;5486475;26;20045;-93
2024/04/10 00:13:31;;;;;;;6.85;1.23;;;9.80;99.90;;;;;;5490572;26;19993;-92
2024/04/10 00:16:02;;;;;;;2.78;0.85;;;9.70;99.90;;;;;;5497264;26;20353;-93
2024/04/10 00:18:30;;;;;;;5.95;0.98;;;9.70;99.90;;;;;;5485158;26;20004;-93
2024/04/10 00:20:57;;;;;;;2.58;0.70;;;9.70;99.90;;;;;;5499627;26;19994;-92
2024/04/10 00:23:24;;;;;;;3.35;0.98;;;9.60;99.90;;;;;;5502124;26;20021;-93
2024/04/10 00:25:59;;;;;;;3.97;1.02;;;9.60;99.90;;;;;;5494043;26;20016;-93
2024/04/10 00:28:28;;;;;;;7.97;1.60;;;9.50;99.90;;;;;;5485505;26;20009;-94
2024/04/10 00:30:56;;;;;;;6.13;1.42;;;9.50;99.90;;;;;;5497552;26;20504;-93
2024/04/10 00:33:23;;;;;;;1.17;0.65;;;9.40;99.90;;;;;;5497966;26;19996;-93
2024/04/10 00:35:57;;;;;;;2.45;0.65;;;9.40;99.90;;;;;;5495223;26;20466;-93
2024/04/10 00:38:26;;;;;;;1.75;0.38;;;9.30;99.90;;;;;;5486440;26;20341;-93
2024/04/10 00:40:54;;;;;;;4.50;0.90;;;9.30;99.90;;;;;;5466154;26;20030;-93
2024/04/10 00:43:21;;;;;;;3.67;0.60;;;9.20;99.90;;;;;;5507604;25;20041;-93
2024/04/10 00:46:04;;;;;;;1.95;0.55;;;9.10;99.90;;;;;;5509034;26;20648;-92
2024/04/10 00:48:31;;;;;;;6.75;1.20;;;9.10;99.90;;;;;;5497864;26;20007;-93
2024/04/10 00:50:59;;;;;;;2.30;0.90;;;9.00;99.90;;;;;;5500129;26;20033;-93
2024/04/10 00:53:25;;;;;;;2.05;0.55;;;9.00;99.90;;;;;;5487774;25;20022;-92
2024/04/10 00:55:52;;;;;;;0.38;0.25;;;8.90;99.90;;;;;;5481134;26;20004;-93
2024/04/10 00:58:20;;;;;;;2.50;0.55;;;8.90;99.90;;;;;;5485000;26;19994;-93
2024/04/10 01:00:48;;;;;;;0.57;0.25;;;8.90;99.90;;;;;;5482964;26;20780;-90
2024/04/10 01:03:15;;;;;;;5.57;0.75;;;9.00;99.90;;;;;;5497753;26;20027;-94
2024/04/10 01:05:42;;;;;;;0.98;0.28;;;9.00;99.90;;;;;;5482517;26;20057;-92
2024/04/10 01:08:09;;;;;;;0.22;0.20;;;9.00;99.90;;;;;;5493418;26;19998;-93
2024/04/10 01:10:36;;;;;;;2.40;0.40;;;9.00;99.90;;;;;;5497220;26;20008;-93
2024/04/10 01:13:03;;;;;;;1.40;0.40;;;9.10;99.90;;;;;;5485401;26;20034;-92
2024/04/10 01:15:30;;;;;;;2.92;0.47;;;9.10;99.90;;;;;;5495014;26;20037;-93
2024/04/10 01:17:57;;;;;;;3.15;1.08;;;9.10;99.90;;;;;;5490903;26;20017;-93
2024/04/10 01:20:24;;;;;;;2.17;0.63;;;9.10;99.90;;;;;;5485631;25;20460;-92
2024/04/10 01:22:51;;;;;;;2.30;0.52;;;9.10;99.90;;;;;;5484343;26;20450;-93
2024/04/10 01:25:18;;;;;;;0.80;0.40;;;9.10;99.90;;;;;;5486254;26;20022;-92
2024/04/10 01:27:44;;;;;;;1.17;0.35;;;9.10;99.90;;;;;;5498249;26;20041;-92
2024/04/10 01:30:12;;;;;;;4.97;0.47;;;9.10;99.90;;;;;;5484025;26;20013;-94
2024/04/10 01:32:39;;;;;;;1.75;0.50;;;9.10;99.90;;;;;;5508589;26;19994;-92
2024/04/10 01:35:06;;;;;;;6.40;1.50;;;9.10;99.90;;;;;;5491575;25;20584;-92
2024/04/10 01:37:33;;;;;;;3.83;0.57;;;9.20;99.90;;;;;;5495306;26;20033;-92
2024/04/10 01:40:00;;;;;;;4.80;0.80;;;9.20;99.90;;;;;;5504465;26;20054;-92
2024/04/10 01:42:27;;;;;;;0.98;0.45;;;9.20;99.90;;;;;;5493580;26;19999;-92
2024/04/10 01:44:54;;;;;;;0.95;0.40;;;9.20;99.90;;;;;;5491262;26;19995;-92
2024/04/10 01:47:21;;;;;;;2.55;0.63;;;9.20;99.90;;;;;;5483022;26;20827;-93
2024/04/10 01:49:49;;;;;;;2.03;0.43;;;9.10;99.90;;;;;;5491984;26;20002;-93
2024/04/10 01:52:16;;;;;;;1.30;0.38;;;9.20;99.90;;;;;;5496985;26;19994;-93
2024/04/10 01:54:45;;;;;;;0.65;0.28;;;9.20;99.90;;;;;;5487520;26;20008;-92
2024/04/10 01:57:12;;;;;;;4.22;0.60;;;9.20;99.90;;;;;;5488857;25;20034;-92
2024/04/10 01:59:38;;;;;;;1.83;0.47;;;9.20;99.90;;;;;;5492902;26;20101;-93
2024/04/10 02:02:05;;;;;;;1.65;0.68;;;9.10;99.90;;;;;;5492990;26;20502;-93
2024/04/10 02:04:33;;;;;;;3.20;0.75;;;9.10;99.90;;;;;;5493430;26;20025;-92
2024/04/10 02:07:01;;;;;;;0.73;0.30;;;9.10;99.90;;;;;;5493940;26;20041;-93
2024/04/10 02:09:28;;;;;;;1.02;0.40;;;9.10;99.90;;;;;;5503615;26;20016;-93
2024/04/10 02:11:56;;;;;;;1.33;0.50;;;9.10;99.90;;;;;;5496158;26;20034;-92
2024/04/10 02:14:23;;;;;;;2.38;0.38;;;9.10;99.90;;;;;;5498170;26;20001;-93
2024/04/10 02:16:50;;;;;;;0.85;0.40;;;9.10;99.90;;;;;;5507500;26;20002;-93
2024/04/10 02:19:17;;;;;;;1.20;0.40;;;9.10;99.90;;;;;;5497461;26;20807;-93
2024/04/10 02:21:44;;;;;;;3.03;0.80;;;9.10;99.90;;;;;;5490620;26;20330;-93
2024/04/10 02:24:11;;;;;;;1.27;0.20;;;9.00;99.90;;;;;;5497075;26;19998;-93
2024/04/10 02:26:38;;;;;;;1.40;0.40;;;9.00;99.90;;;;;;5483462;26;20501;-94
2024/04/10 02:29:05;;;;;;;7.40;1.90;;;9.10;99.90;;;;;;5497382;26;20003;-92
2024/04/10 02:31:32;;;;;;;2.55;0.40;;;9.10;99.90;;;;;;5510875;25;20033;-92
2024/04/10 02:33:59;;;;;;;3.47;0.52;;;9.00;99.90;;;;;;5501672;26;20375;-93
2024/04/10 02:36:26;;;;;;;1.02;0.30;;;9.00;99.90;;;;;;5491472;26;20006;-93
2024/04/10 02:38:53;;;;;;;4.70;0.50;;;9.00;99.90;;;;;;5485432;26;20000;-93
2024/04/10 02:41:20;;;;;;;1.95;0.45;;;9.00;99.90;;;;;;5486968;26;19994;-93
2024/04/10 02:43:47;;;;;;;1.17;0.38;;;8.90;99.90;;;;;;5488308;26;20003;-93
2024/04/10 02:46:16;;;;;;;0.88;0.30;;;8.90;99.90;;;;;;5487498;26;20024;-94
2024/04/10 02:48:44;;;;;;;1.35;0.17;;;8.90;99.90;;;;;;5490978;26;20712;-94
2024/04/10 02:51:11;;;;;;;0.52;0.17;;;8.90;99.90;;;;;;5489499;26;19993;-94
2024/04/10 02:53:38;;;;;;;0.50;0.20;;;8.90;99.90;;;;;;5485555;26;19993;-94
2024/04/10 02:56:05;;;;;;;0.43;0.10;;;8.80;99.90;;;;;;5485505;26;20019;-93
2024/04/10 02:58:32;;;;;;;0.30;0.20;;;8.80;99.90;;;;;;5485279;25;20367;-94
2024/04/10 03:00:59;;;;;;;1.17;0.30;;;8.80;99.90;;;;;;5493849;26;20008;-93
2024/04/10 03:03:26;;;;;;;1.15;0.32;;;8.80;99.90;;;;;;5505256;26;20029;-93
2024/04/10 03:06:04;;;;;;;0.90;0.30;;;8.80;99.90;;;;;;5480101;26;20012;-93
2024/04/10 03:08:32;;;;;;;0.10;0.05;;;8.70;99.90;;;;;;5490598;26;20048;-93
2024/04/10 03:10:59;;;;;;;2.47;0.45;;;8.70;99.90;;;;;;5482358;26;19998;-93
2024/04/10 03:13:26;;;;;;;2.22;0.70;;;8.70;99.90;;;;;;5486684;26;20017;-93
2024/04/10 03:15:54;;;;;;;1.33;0.52;;;8.70;99.90;;;;;;5504849;26;20008;-93
2024/04/10 03:18:21;;;;;;;3.65;0.82;;;8.70;99.90;;;;;;5488369;26;20020;-93
2024/04/10 03:20:48;;;;;;;1.73;0.95;;;8.70;99.90;;;;;;5469338;26;19994;-94
2024/04/10 03:23:15;;;;;;;4.25;0.90;;;8.70;99.90;;;;;;5490196;26;20805;-94
2024/04/10 03:25:41;;;;;;;2.85;1.08;;;8.70;99.90;;;;;;5494245;26;19993;-94
2024/04/10 03:28:09;;;;;;;4.55;1.35;;;8.60;99.90;;;;;;5485033;26;19998;-93
2024/04/10 03:30:36;;;;;;;7.03;1.30;;;8.60;99.90;;;;;;5467970;26;20498;-94
2024/04/10 03:33:04;;;;;;;3.70;1.00;;;8.50;99.90;;;;;;5504147;26;20361;-93
2024/04/10 03:35:30;;;;;;;2.70;1.30;;;8.50;99.90;;;;;;5491248;26;20270;-93
2024/04/10 03:37:57;;;;;;;5.32;1.60;;;8.50;99.90;;;;;;5489408;26;19998;-93
2024/04/10 03:40:24;;;;;;;3.35;1.20;;;8.40;99.90;;;;;;5480771;26;20030;-93
2024/04/10 03:42:53;;;;;;;7.57;1.60;;;8.40;99.90;;;;;;5499615;26;19994;-93
2024/04/10 03:45:20;;;;;;;3.63;1.15;;;8.40;99.90;;;;;;5490059;26;20453;-93
2024/04/10 03:47:47;;;;;;;7.07;1.58;;;8.40;99.90;;;;;;5501689;26;20004;-94
2024/04/10 03:50:14;;;;;;;5.85;1.30;;;8.30;99.90;;;;;;5489231;26;20449;-94
2024/04/10 03:52:41;;;;;;;7.75;1.80;;;8.30;99.90;;;;;;5496529;26;20017;-94
2024/04/10 03:55:08;;;;;;;3.75;1.42;;;8.30;99.90;;;;;;5484079;26;20041;-94
2024/04/10 03:57:35;;;;;;;6.55;1.95;;;8.30;99.90;;;;;;5486226;26;20004;-92
2024/04/10 04:00:02;;;;;;;10.43;2.63;;;8.20;99.90;;;;;;5484706;26;20030;-94
2024/04/10 04:02:29;;;;;;;6.57;1.50;;;8.20;99.90;;;;;;5487492;26;20015;-94
2024/04/10 04:04:56;;;;;;;6.22;1.70;;;8.20;99.90;;;;;;5493478;25;20376;-92
2024/04/10 04:07:23;;;;;;;5.03;1.50;;;8.20;99.90;;;;;;5490853;26;20033;-94
2024/04/10 04:09:49;;;;;;;5.07;1.88;;;8.20;99.90;;;;;;5493660;26;20022;-93
2024/04/10 04:12:16;;;;;;;5.88;1.70;;;8.20;99.90;;;;;;5501901;26;20018;-93
2024/04/10 04:14:43;;;;;;;6.53;1.90;;;8.20;99.90;;;;;;5480042;25;19994;-92
2024/04/10 04:17:10;;;;;;;3.45;1.30;;;8.20;99.90;;;;;;5495094;26;19997;-93
2024/04/10 04:19:37;;;;;;;8.50;1.98;;;8.10;99.90;;;;;;5496680;25;20029;-93
2024/04/10 04:22:04;;;;;;;9.85;2.00;;;8.10;99.90;;;;;;5495809;26;20020;-94
2024/04/10 04:24:31;;;;;;;5.15;1.55;;;8.10;99.90;;;;;;5498281;26;19993;-94
2024/04/10 04:26:57;;;;;;;5.72;1.67;;;8.10;99.90;;;;;;5499488;26;20055;-93
2024/04/10 04:29:24;;;;;;;10.38;1.98;;;8.00;99.90;;;;;;5492373;26;20016;-93
2024/04/10 04:31:51;;;;;;;6.20;1.70;;;8.00;99.90;;;;;;5502584;26;19993;-94
2024/04/10 04:34:19;;;;;;;4.03;1.48;;;8.00;99.90;;;;;;5490270;26;20104;-94
2024/04/10 04:36:46;;;;;;;9.48;1.80;;;7.90;99.90;;;;;;5510721;26;20026;-93
2024/04/10 04:39:13;;;;;;;8.70;2.35;;;7.90;99.90;;;;;;5512076;26;19994;-94
2024/04/10 04:41:40;;;;;;;6.05;1.63;;;7.90;99.90;;;;;;5491455;26;20688;-92
2024/04/10 04:44:08;;;;;;;10.25;1.73;;;7.90;99.90;;;;;;5494471;25;20034;-92
2024/04/10 04:46:35;;;;;;;9.52;1.90;;;7.80;99.90;;;;;;5500026;26;19998;-94
2024/04/10 04:49:02;;;;;;;6.75;1.58;;;7.80;99.90;;;;;;5486501;26;19994;-93
2024/04/10 04:51:28;;;;;;;6.85;1.90;;;7.80;99.90;;;;;;5494174;26;20008;-94
2024/04/10 04:53:55;;;;;;;6.13;1.50;;;7.80;99.90;;;;;;5470576;26;20004;-93
2024/04/10 04:56:22;;;;;;;5.05;1.48;;;7.80;99.90;;;;;;5501920;26;20798;-93
2024/04/10 04:58:49;;;;;;;5.63;1.48;;;7.80;99.90;;;;;;5482875;26;20034;-93
2024/04/10 05:01:16;;;;;;;6.25;1.33;;;7.80;99.90;;;;;;5494325;26;19994;-94
2024/04/10 05:06:28;;;;;;;8.25;1.77;;;7.80;99.90;;;;;;5496782;26;20022;-94
2024/04/10 05:08:55;;;;;;;5.20;0.98;;;7.70;99.90;;;;;;5507415;26;19993;-94
2024/04/10 05:11:22;;;;;;;9.02;1.63;;;7.70;99.90;;;;;;5508002;26;20000;-94
2024/04/10 05:13:49;;;;;;;10.38;3.10;;;7.70;99.90;;;;;;5460957;26;20005;-93
2024/04/10 05:16:16;;;;;;;5.78;1.40;;;7.70;99.90;;;;;;5504082;26;20033;-93
2024/04/10 05:18:43;;;;;;;6.30;1.55;;;7.70;99.90;;;;;;5483655;26;20006;-92
2024/04/10 05:21:09;;;;;;;7.85;1.88;;;7.70;99.90;;;;;;5500474;26;20004;-94
2024/04/10 05:23:36;;;;;;;7.18;2.08;;;7.70;99.90;;;;;;5498701;25;19994;-93
2024/04/10 05:26:04;;;;;;;9.38;1.95;;;7.70;99.90;;;;;;5489428;26;20024;-94
2024/04/10 05:28:32;;;;;;;9.43;2.10;;;7.70;99.90;;;;;;5506304;26;19997;-93
2024/04/10 05:31:09;;;;;;;7.25;1.83;;;7.70;99.90;;;;;;5490982;26;19994;-94
2024/04/10 05:33:36;;;;;;;10.15;2.97;;;7.70;99.90;;;;;;5490514;25;20037;-93
2024/04/10 05:36:05;;;;;;;6.63;1.85;;;7.70;99.90;;;;;;5505879;26;20002;-94
2024/04/10 05:38:32;;;;;;;7.00;2.08;;;7.70;99.90;;;;;;5486167;26;20005;-93
2024/04/10 05:40:59;;;;;;;19.10;2.28;;;7.70;99.90;;;;;;5500089;25;20003;-94
2024/04/10 05:43:26;;;;;;;7.63;1.98;;;7.80;99.90;;;;;;5500466;26;20357;-93
2024/04/10 05:45:56;;;;;;;7.63;2.00;;;7.80;99.90;;;;;;5493494;26;20376;-94
2024/04/10 05:48:23;;;;;;;10.43;2.55;;;7.80;99.90;;;;;;5492416;26;20023;-92
2024/04/10 05:50:57;;;;;;;5.03;1.70;;;7.90;99.90;;;;;;5508397;26;21656;-93
2024/04/10 05:53:24;;;;;;;11.65;2.92;;;7.90;99.90;;;;;;5495438;26;19994;-94
2024/04/10 05:55:51;;;;;;;7.95;2.72;;;8.00;99.90;;;;;;5503663;26;19994;-93
2024/04/10 05:58:18;;;;;;;6.25;1.58;;;8.00;99.90;;;;;;5489516;26;19998;-93
2024/04/10 06:00:45;;;;;;;8.98;2.85;;;8.10;99.90;;;;;;5485966;26;20509;-93
2024/04/10 06:03:12;;;;;;;9.85;2.40;;;8.20;99.90;;;;;;5500092;25;20026;-93
2024/04/10 06:05:39;;;;;;;9.93;2.70;;;8.20;99.90;;;;;;5481966;26;20006;-92
2024/04/10 06:08:06;;;;;;;12.27;2.20;;;8.20;99.90;;;;;;5488422;26;20037;-93
2024/04/10 06:10:33;;;;;;;5.97;1.70;;;8.40;99.90;;;;;;5501551;26;19998;-93
2024/04/10 06:13:00;;;;;;;8.52;2.13;;;8.40;99.90;;;;;;5488438;26;19994;-92
2024/04/10 06:15:27;;;;;;;5.28;2.08;;;8.50;99.90;;;;;;5474966;26;20300;-92
2024/04/10 06:17:54;;;;;;;5.53;1.40;;;8.50;99.90;;;;;;5461133;26;20421;-93
2024/04/10 06:20:22;;;;;;;8.00;2.55;;;8.60;99.90;;;;;;5437199;26;19995;-92
2024/04/10 06:22:48;;;;;;;6.70;2.05;;;8.70;99.90;;;;;;5450382;26;20045;-92
2024/04/10 06:25:15;;;;;;;4.90;1.33;;;8.70;99.90;;;;;;5485607;25;20108;-92
2024/04/10 06:27:42;;;;;;;6.88;1.45;;;8.80;99.90;;;;;;5493329;26;20000;-94
2024/04/10 06:30:10;;;;;;;6.38;1.45;;;8.80;99.90;;;;;;5488008;26;20033;-93
2024/04/10 06:32:37;;;;;;;9.05;2.40;;;8.90;99.90;;;;;;5462175;26;20005;-92
2024/04/10 06:35:04;;;;;;;15.65;1.60;;;9.00;99.90;;;;;;5496551;26;20384;-93
2024/04/10 06:37:33;;;;;;;7.43;3.10;;;9.10;99.90;;;;;;5507240;26;20030;-94
2024/04/10 06:40:00;;;;;;;9.95;2.00;;;9.10;99.90;;;;;;5497635;26;20027;-93
2024/04/10 06:42:27;;;;;;;7.80;2.80;;;9.20;99.90;;;;;;5488035;26;20012;-93
2024/04/10 06:44:54;;;;;;;13.27;3.63;;;9.20;99.90;;;;;;5492667;26;20011;-93
2024/04/10 06:47:21;;;;;;;10.18;2.78;;;9.30;99.90;;;;;;5490090;26;19994;-92
2024/04/10 06:49:53;;;;;;;13.55;2.53;;;9.40;99.90;;;;;;5504901;26;20333;-93
2024/04/10 06:52:20;;;;;;;8.25;2.13;;;9.40;99.90;;;;;;5499530;26;20006;-93
2024/04/10 06:54:47;;;;;;;11.48;2.38;;;9.50;99.90;;;;;;5487507;26;20008;-92
2024/04/10 06:57:14;;;;;;;13.43;3.22;;;9.50;99.90;;;;;;5496886;26;19998;-93
2024/04/10 06:59:41;;;;;;;10.45;2.15;;;9.60;99.90;;;;;;5494901;26;19998;-92
2024/04/10 07:02:07;;;;;;;9.30;2.33;;;9.70;99.90;;;;;;5499712;26;19993;-94
2024/04/10 07:04:34;;;;;;;8.60;1.95;;;9.70;99.90;;;;;;5502137;26;20372;-93
2024/04/10 07:07:03;;;;;;;17.75;3.10;;;9.80;99.90;;;;;;5500477;26;20034;-93
2024/04/10 07:09:30;;;;;;;10.02;1.75;;;9.90;99.90;;;;;;5509737;25;20401;-94
2024/04/10 07:11:57;;;;;;;5.15;1.13;;;9.90;99.90;;;;;;5492424;26;20006;-94
2024/04/10 07:14:24;;;;;;;21.40;7.13;;;10.00;99.90;;;;;;5501477;26;20041;-95
2024/04/10 07:16:51;;;;;;;7.07;2.13;;;10.10;99.90;;;;;;5492040;26;20708;-94
2024/04/10 07:19:18;;;;;;;17.13;2.85;;;10.20;99.90;;;;;;5488553;26;20026;-92
2024/04/10 07:21:44;;;;;;;10.30;2.53;;;10.30;99.90;;;;;;5457844;26;20002;-94
2024/04/10 07:24:13;;;;;;;6.95;1.65;;;10.30;99.90;;;;;;5500701;26;19998;-93
2024/04/10 07:26:40;;;;;;;15.15;3.20;;;10.40;99.90;;;;;;5493557;26;20029;-94
2024/04/10 07:29:07;;;;;;;14.48;3.63;;;10.30;99.90;;;;;;5461068;26;20372;-93
2024/04/10 07:31:36;;;;;;;10.48;3.17;;;10.40;99.90;;;;;;5492534;26;20633;-94
2024/04/10 07:34:03;;;;;;;19.38;7.00;;;10.40;99.90;;;;;;5496866;26;19999;-93
2024/04/10 07:36:34;;;;;;;10.27;2.85;;;10.50;99.90;;;;;;5485589;26;20444;-93
2024/04/10 07:39:03;;;;;;;13.10;2.38;;;10.50;99.90;;;;;;5488149;26;19994;-93
2024/04/10 07:41:29;;;;;;;4.45;1.48;;;10.50;99.90;;;;;;5498437;26;19998;-93
2024/04/10 07:43:56;;;;;;;6.20;2.20;;;10.60;99.90;;;;;;5496394;26;20012;-94
2024/04/10 07:46:23;;;;;;;7.00;2.25;;;10.60;99.90;;;;;;5490858;26;20034;-94
2024/04/10 07:48:54;;;;;;;13.20;1.80;;;10.70;99.90;;;;;;5493807;25;20046;-94
2024/04/10 07:51:22;;;;;;;9.63;3.03;;;10.70;99.90;;;;;;5497046;26;20004;-93
2024/04/10 07:53:49;;;;;;;12.55;3.20;;;10.70;99.90;;;;;;5508681;26;19998;-93
2024/04/10 07:56:16;;;;;;;15.35;2.80;;;10.70;99.90;;;;;;5503053;25;20481;-93
2024/04/10 07:58:43;;;;;;;13.30;2.80;;;10.70;99.90;;;;;;5489417;26;19998;-93
2024/04/10 08:01:12;;;;;;;7.72;2.45;;;10.90;99.90;;;;;;5491169;26;20009;-92
2024/04/10 08:03:39;;;;;;;19.98;7.18;;;11.10;99.90;;;;;;5484650;25;20026;-93
2024/04/10 08:06:08;;;;;;;11.85;3.85;;;11.30;99.90;;;;;;5501223;26;19994;-93
2024/04/10 08:08:42;;;;;;;10.32;2.80;;;11.30;99.90;;;;;;5486646;26;20004;-93
2024/04/10 08:11:13;;;;;;;10.90;3.25;;;11.30;99.90;;;;;;5488393;26;20488;-93
2024/04/10 08:13:40;;;;;;;15.68;2.65;;;11.30;99.90;;;;;;5495813;25;19994;-93
2024/04/10 08:16:11;;;;;;;16.92;4.40;;;11.30;99.90;;;;;;5493361;26;20225;-93
2024/04/10 08:18:40;;;;;;;15.48;3.10;;;11.30;99.90;;;;;;5504917;26;19997;-94
2024/04/10 08:21:14;;;;;;;16.30;2.95;;;11.30;99.90;;;;;;5488880;26;20002;-93
2024/04/10 08:23:42;;;;;;;5.72;2.10;;;11.30;99.90;;;;;;5485834;25;20034;-92
2024/04/10 08:26:10;;;;;;;13.20;2.35;;;11.30;99.90;;;;;;5492213;26;20034;-92
2024/04/10 08:28:45;;;;;;;6.82;2.08;;;11.20;99.90;;;;;;5486306;26;19999;-92
2024/04/10 08:31:14;;;;;;;13.55;3.70;;;11.20;99.90;;;;;;5492279;26;20026;-93
2024/04/10 08:33:46;;;;;;;19.48;7.35;;;11.20;99.90;;;;;;5482299;26;20691;-92
2024/04/10 08:36:13;;;;;;;10.57;2.30;;;11.40;99.90;;;;;;5485535;26;20001;-92
2024/04/10 08:38:40;;;;;;;8.98;2.28;;;11.50;99.90;;;;;;5490257;26;19995;-92
2024/04/10 08:41:16;;;;;;;16.52;3.53;;;11.50;99.90;;;;;;5497906;26;20342;-92
2024/04/10 08:43:45;;;;;;;4.60;1.40;;;11.50;99.90;;;;;;5487342;26;20037;-93
2024/04/10 08:46:13;;;;;;;16.75;5.65;;;11.50;99.90;;;;;;5502973;26;20037;-94
2024/04/10 08:48:42;;;;;;;11.45;2.03;;;11.50;99.90;;;;;;5484013;26;20461;-93
2024/04/10 08:51:11;;;;;;;17.35;5.63;;;11.40;99.90;;;;;;5489058;26;20585;-92
2024/04/10 08:53:46;;;;;;;17.42;5.47;;;11.50;99.90;;;;;;5491678;26;20485;-93
2024/04/10 08:56:14;;;;;;;3.40;1.30;;;11.60;99.90;;;;;;5505329;26;20353;-92
2024/04/10 08:58:43;;;;;;;4.93;1.75;;;11.70;99.90;;;;;;5496897;26;20002;-93
2024/04/10 09:01:10;;;;;;;8.52;1.88;;;11.80;99.90;;;;;;5481859;26;20006;-93
2024/04/10 09:03:37;;;;;;;9.35;1.83;;;11.90;99.90;;;;;;5481342;26;20017;-94
2024/04/10 09:06:08;;;;;;;13.40;4.82;;;12.00;99.90;;;;;;5492507;26;20041;-94
2024/04/10 09:08:37;;;;;;;6.93;1.38;;;11.90;99.90;;;;;;5486023;26;20012;-94
2024/04/10 09:11:04;;;;;;;5.20;1.48;;;11.80;99.90;;;;;;5483966;26;20034;-93
2024/04/10 09:13:31;;;;;;;9.15;2.25;;;11.90;99.90;;;;;;5481242;26;20567;-93
2024/04/10 09:15:59;;;;;;;2.72;1.23;;;12.10;99.90;;;;;;5483793;26;19994;-94
2024/04/10 09:18:26;;;;;;;16.67;5.35;;;12.20;99.90;;;;;;5483771;26;20004;-93
2024/04/10 09:21:10;;;;;;;9.60;2.13;;;12.40;99.90;;;;;;5481187;26;20002;-93
2024/04/10 09:23:38;;;;;;;15.30;2.70;;;12.50;99.90;;;;;;5487968;26;20020;-93
2024/04/10 09:26:05;;;;;;;6.35;1.73;;;12.50;99.90;;;;;;5483987;26;20008;-93
2024/04/10 09:28:33;;;;;;;7.90;2.13;;;12.40;99.90;;;;;;5482923;26;20026;-92
2024/04/10 09:31:00;;;;;;;15.98;4.80;;;12.30;99.90;;;;;;5496077;26;20008;-93
2024/04/10 09:33:31;;;;;;;7.13;1.67;;;12.20;99.90;;;;;;5481631;26;20071;-92
2024/04/10 09:35:59;;;;;;;13.50;2.55;;;12.10;99.90;;;;;;5491101;26;20019;-92
2024/04/10 09:38:28;;;;;;;10.13;1.85;;;12.10;99.90;;;;;;5491608;26;20016;-92
2024/04/10 09:41:03;;;;;;;4.20;1.85;;;12.30;99.90;;;;;;5493618;26;20011;-93
2024/04/10 09:43:31;;;;;;;15.45;4.47;;;12.40;99.90;;;;;;5484391;26;20042;-94
2024/04/10 09:46:02;;;;;;;5.97;1.95;;;12.60;99.90;;;;;;5489267;26;20022;-93
2024/04/10 09:48:34;;;;;;;14.82;4.72;;;12.60;99.90;;;;;;5506170;26;19999;-92
2024/04/10 09:51:06;;;;;;;4.38;1.48;;;12.90;99.90;;;;;;5497449;26;20026;-92
2024/04/10 09:53:33;;;;;;;8.90;1.90;;;12.90;99.90;;;;;;5485993;26;19994;-93
2024/04/10 09:56:03;;;;;;;13.60;4.93;;;13.00;99.90;;;;;;5489502;26;20451;-92
2024/04/10 09:58:35;;;;;;;10.20;2.35;;;13.10;99.90;;;;;;5482641;26;20026;-92
2024/04/10 10:01:03;;;;;;;4.67;1.57;;;13.20;99.90;;;;;;5461251;26;19994;-93
2024/04/10 10:03:33;;;;;;;11.45;2.85;;;13.10;99.90;;;;;;5490817;26;20417;-92
2024/04/10 10:06:04;;;;;;;16.30;5.22;;;12.90;99.90;;;;;;5481784;26;20030;-91
2024/04/10 10:08:33;;;;;;;7.82;1.67;;;12.80;99.90;;;;;;5487839;26;20002;-91
2024/04/10 10:11:05;;;;;;;12.63;1.83;;;12.70;99.90;;;;;;5485896;26;20695;-91
2024/04/10 10:13:40;;;;;;;14.35;4.55;;;12.60;99.90;;;;;;5494216;26;19998;-91
2024/04/10 10:16:07;;;;;;;7.30;1.50;;;12.70;99.90;;;;;;5479976;26;20043;-92
2024/04/10 10:18:34;;;;;;;9.77;2.00;;;12.90;99.90;;;;;;5480660;26;20470;-93
2024/04/10 10:21:02;;;;;;;4.63;1.27;;;13.10;99.90;;;;;;5492712;26;20005;-91
2024/04/10 10:23:29;;;;;;;6.80;2.00;;;13.20;99.90;;;;;;5493896;26;20490;-92
2024/04/10 10:25:56;;;;;;;5.78;1.85;;;13.10;99.90;;;;;;5484519;26;20029;-92
2024/04/10 10:28:23;;;;;;;8.90;1.90;;;13.00;99.90;;;;;;5483991;26;19998;-92
2024/04/10 10:30:50;;;;;;;12.70;3.78;;;13.10;99.90;;;;;;5483633;26;20338;-92
2024/04/10 10:33:20;;;;;;;12.13;3.80;;;13.20;99.90;;;;;;5488380;26;20491;-92
2024/04/10 10:35:46;;;;;;;6.80;1.55;;;13.20;99.90;;;;;;5481339;26;20034;-92
2024/04/10 10:38:15;;;;;;;13.75;4.70;;;13.10;99.90;;;;;;5479637;26;19994;-92
2024/04/10 10:40:42;;;;;;;5.90;2.17;;;13.20;99.90;;;;;;5490908;26;20702;-93
2024/04/10 10:43:10;;;;;;;7.18;1.50;;;13.10;99.90;;;;;;5481357;26;19998;-92
2024/04/10 10:45:38;;;;;;;7.10;2.15;;;13.10;99.90;;;;;;5481551;26;20089;-92
2024/04/10 10:48:08;;;;;;;11.60;3.33;;;13.00;99.90;;;;;;5493041;26;20034;-91
2024/04/10 10:50:35;;;;;;;12.95;3.60;;;13.00;99.90;;;;;;5495496;26;20026;-92
2024/04/10 10:53:02;;;;;;;7.63;1.63;;;13.10;99.90;;;;;;5480094;26;20010;-91
2024/04/10 10:55:29;;;;;;;10.85;3.38;;;13.30;99.90;;;;;;5464390;26;19995;-93
2024/04/10 10:58:06;;;;;;;6.10;1.42;;;13.30;99.90;;;;;;5493611;26;20426;-91
2024/04/10 11:00:34;;;;;;;4.68;1.15;;;13.40;99.90;;;;;;5482564;26;19994;-93
2024/04/10 11:03:08;;;;;;;3.92;0.95;;;13.60;99.90;;;;;;5497490;26;20008;-91
2024/04/10 11:05:35;;;;;;;10.10;2.10;;;13.70;99.90;;;;;;5491443;26;20026;-93
2024/04/10 11:08:03;;;;;;;6.35;1.58;;;13.90;99.90;;;;;;5481594;26;20050;-92
2024/04/10 11:10:30;;;;;;;13.07;3.60;;;14.00;99.90;;;;;;5479282;26;20030;-92
2024/04/10 11:13:01;;;;;;;4.28;1.15;;;14.10;99.90;;;;;;5481172;26;20046;-91
2024/04/10 11:15:28;;;;;;;5.00;1.07;;;14.00;99.90;;;;;;5488238;26;19994;-92
2024/04/10 11:18:02;;;;;;;8.88;2.13;;;13.90;99.90;;;;;;5491116;26;20012;-92
2024/04/10 11:20:30;;;;;;;5.05;1.58;;;14.00;99.90;;;;;;5485436;26;20353;-92
2024/04/10 11:23:05;;;;;;;12.77;3.80;;;14.20;99.90;;;;;;5494171;26;20193;-92
2024/04/10 11:25:31;;;;;;;16.85;1.77;;;14.30;99.90;;;;;;5488483;26;20013;-93
2024/04/10 11:27:58;;;;;;;9.05;1.73;;;14.40;99.90;;;;;;5499940;26;20490;-92
2024/04/10 11:30:26;;;;;;;3.85;1.17;;;14.50;99.90;;;;;;5478667;26;20002;-93
2024/04/10 11:32:57;;;;;;;6.05;1.75;;;14.60;99.90;;;;;;5480779;26;20002;-92
2024/04/10 11:35:27;;;;;;;13.18;3.40;;;14.50;99.90;;;;;;5487386;26;20009;-92
2024/04/10 11:37:55;;;;;;;12.40;3.67;;;14.50;99.90;;;;;;5489315;26;20022;-92
2024/04/10 11:40:22;;;;;;;18.23;3.03;;;14.60;99.90;;;;;;5480307;26;19995;-93
2024/04/10 11:42:50;;;;;;;10.43;3.10;;;14.60;99.90;;;;;;5494034;26;20022;-94
2024/04/10 11:45:17;;;;;;;1.23;0.77;;;14.80;99.90;;;;;;5505949;26;19998;-93
2024/04/10 11:47:47;;;;;;;12.35;3.47;;;14.80;99.90;;;;;;5497063;26;20022;-94
2024/04/10 11:50:15;;;;;;;6.28;1.33;;;14.90;99.90;;;;;;5488101;26;20239;-95
2024/04/10 11:52:44;;;;;;;7.50;2.20;;;14.90;99.90;;;;;;5509503;26;20026;-94
2024/04/10 11:55:12;;;;;;;6.95;2.00;;;14.80;99.90;;;;;;5485558;26;20005;-94
2024/04/10 11:57:39;;;;;;;8.13;2.35;;;14.70;99.90;;;;;;5483711;26;20030;-93
2024/04/10 12:00:09;;;;;;;14.00;3.80;;;14.60;99.90;;;;;;5482940;26;20008;-93
2024/04/10 12:02:36;;;;;;;8.27;2.08;;;14.50;99.90;;;;;;5483115;26;20002;-93
2024/04/10 12:05:06;;;;;;;11.55;3.53;;;14.40;99.90;;;;;;5499274;26;20002;-93
2024/04/10 12:07:34;;;;;;;12.23;3.70;;;14.50;99.90;;;;;;5479964;26;20032;-92
2024/04/10 12:10:01;;;;;;;5.78;1.17;;;14.80;99.90;;;;;;5492081;26;20008;-93
2024/04/10 12:12:28;;;;;;;4.05;1.38;;;14.80;99.90;;;;;;5491356;26;20005;-92
2024/04/10 12:14:56;;;;;;;12.40;3.60;;;14.90;99.90;;;;;;5498849;26;20348;-92
2024/04/10 12:17:23;;;;;;;13.15;4.03;;;15.00;99.90;;;;;;5489070;26;20059;-93
2024/04/10 12:19:49;;;;;;;7.45;2.03;;;14.90;99.30;;;;;;5490149;26;20006;-94
2024/04/10 12:22:16;;;;;;;6.53;2.00;;;14.80;98.30;;;;;;5493317;26;20003;-94
2024/04/10 12:24:43;;;;;;;11.25;3.45;;;14.60;99.40;;;;;;5490790;26;20038;-93
2024/04/10 12:27:10;;;;;;;6.50;1.70;;;14.80;99.90;;;;;;5488909;25;20374;-93
2024/04/10 12:29:37;;;;;;;11.05;3.58;;;15.10;99.90;;;;;;5499893;26;19998;-93
2024/04/10 12:32:04;;;;;;;10.90;2.90;;;15.20;99.90;;;;;;5498582;26;20005;-93
2024/04/10 12:34:30;;;;;;;11.50;3.28;;;15.40;99.90;;;;;;5480226;26;20722;-93
2024/04/10 12:39:44;;;;;;;7.47;1.85;;;15.70;96.90;;;;;;5519793;25;19993;-94
2024/04/10 12:42:11;;;;;;;5.82;1.77;;;15.40;97.10;;;;;;5501221;25;20130;-95
2024/04/10 12:44:38;;;;;;;3.92;1.00;;;15.30;98.70;;;;;;5534539;25;20008;-94
2024/04/10 12:47:06;;;;;;;15.00;3.70;;;15.30;98.10;;;;;;5504041;25;20457;-94
2024/04/10 12:49:36;;;;;;;10.40;3.25;;;15.30;99.90;;;;;;5503714;25;19993;-94
2024/04/10 12:52:03;;;;;;;11.18;1.50;;;15.40;97.70;;;;;;5506204;25;19997;-94
2024/04/10 12:54:30;;;;;;;3.05;1.00;;;15.50;91.60;;;;;;5502967;25;19993;-94
2024/04/10 12:56:58;;;;;;;12.05;3.65;;;15.60;93.80;;;;;;5534030;25;20122;-94
2024/04/10 12:59:25;;;;;;;5.40;1.20;;;15.70;94.10;;;;;;5530692;25;20015;-94